الصفحة الرئيسية
METAR-TAF:

METAR-TAF

مطار :

Touho, نيو كاليدونيا

دائرة عرض: 20-47-25S, خط طول: 165-15-34E, ارتفاع: 3 متر

METAR: مفقودة

زمن: 20:08 (09:08 UTC)

توقعات

تاريخ ووقت الإصدار 16ساعات و 8 دقيقة قبل الساعة 17:00UTC
التوقعات صالحة من31 الساعة 18 UTC إلى 01 الساعة 18 UTC
ريح 8 عقدة من الشرق/الشمال الشرقي
الرؤية 10 كم أو أكثر
غيوم متفرقة على ارتفاع 2500 قدم

TAF: NWWU 311700Z 3118/0118 07008KT 9999 SCT025

أرصاد الطقس والتوقعات من أكثر من 4000 مطار (تقارير الطقس للمطار METAR والتنبؤ بالطقس بالمطارTAF).

المحطات المتاحة هي النقط الصفراء والحمراء على الخريطة.

حرك المؤشر فوق النقطة لمعرفة اسم المحطة.

ثم انقر لمعرفة أرصاد وتوقعات الطقس.

لتغيير الخارطة: اضغط على الأزرار الخضراء مع رمز الصليب الأسود للتكبير. على الزر الأخضر مع شرطة للتصغير، أو على الأسهم الخضراء للخرائط المجاورة.


METAR-TAF: